createdAt,value
2018-06-24T00:00:00.934Z,6.6
2018-06-24T00:05:01.014Z,5.9
2018-06-24T00:10:00.879Z,5.5
2018-06-24T00:15:00.792Z,5.8
2018-06-24T00:25:00.963Z,6.0
2018-06-24T00:30:00.867Z,6.1
2018-06-24T00:35:00.831Z,6.8
2018-06-24T00:45:00.833Z,6.6
2018-06-24T00:50:00.960Z,6.4
2018-06-24T00:55:01.804Z,6.5
2018-06-24T01:00:04.469Z,5.3
2018-06-24T01:05:00.837Z,5.2
2018-06-24T01:10:05.936Z,5.3
2018-06-24T01:15:05.875Z,5.2
2018-06-24T01:20:02.351Z,4.8
2018-06-24T01:25:00.813Z,4.9
2018-06-24T01:30:01.042Z,4.8
2018-06-24T01:35:00.868Z,4.6
2018-06-24T01:40:00.915Z,5.6
2018-06-24T01:45:00.862Z,6.0
2018-06-24T01:50:00.912Z,6.4
2018-06-24T01:55:00.820Z,6.9
2018-06-24T02:00:01.023Z,7.2
2018-06-24T02:05:00.815Z,6.5
2018-06-24T02:10:00.899Z,6.8
2018-06-24T02:15:00.832Z,6.6
2018-06-24T02:20:00.900Z,6.8
2018-06-24T02:25:00.860Z,7.2
2018-06-24T02:30:01.202Z,7.5
2018-06-24T02:40:01.320Z,8.1
2018-06-24T02:45:00.934Z,8.2
2018-06-24T02:50:00.914Z,8.6
2018-06-24T02:55:00.846Z,8.4
2018-06-24T03:00:00.975Z,8.4
2018-06-24T03:05:00.848Z,8.9
2018-06-24T03:10:00.883Z,9.9
2018-06-24T03:15:00.888Z,9.9
2018-06-24T03:20:00.948Z,10.3
2018-06-24T03:25:00.890Z,11.0
2018-06-24T03:30:00.913Z,11.0
2018-06-24T03:35:00.927Z,9.9
2018-06-24T03:40:01.329Z,9.4
2018-06-24T03:45:00.878Z,9.7
2018-06-24T03:50:00.884Z,9.0
2018-06-24T03:55:00.888Z,8.7
2018-06-24T04:00:01.078Z,8.9
2018-06-24T04:05:00.860Z,9.2
2018-06-24T04:15:01.017Z,9.1
2018-06-24T04:20:01.020Z,8.8
2018-06-24T04:25:00.889Z,8.9
2018-06-24T04:30:01.035Z,8.3
2018-06-24T04:35:01.225Z,7.9
2018-06-24T04:40:01.388Z,7.8
2018-06-24T04:45:00.873Z,8.0
2018-06-24T04:50:01.035Z,7.5
2018-06-24T04:55:00.973Z,7.4
2018-06-24T05:00:01.108Z,6.8
2018-06-24T05:05:00.880Z,6.0
2018-06-24T05:10:01.051Z,5.1
2018-06-24T05:15:00.982Z,4.9
2018-06-24T05:25:00.947Z,4.7
2018-06-24T05:30:01.118Z,4.6
2018-06-24T05:40:01.021Z,4.5
2018-06-24T05:45:00.930Z,4.3
2018-06-24T05:50:01.058Z,4.2
2018-06-24T05:55:05.937Z,4.4
2018-06-24T06:00:01.063Z,4.6
2018-06-24T06:05:00.980Z,4.8
2018-06-24T06:10:01.101Z,4.9
2018-06-24T06:15:00.922Z,5.4
2018-06-24T06:20:01.179Z,5.2
2018-06-24T06:25:01.009Z,5.0
2018-06-24T06:30:06.079Z,4.4
2018-06-24T06:35:01.057Z,4.2
2018-06-24T06:40:00.957Z,3.6
2018-06-24T06:45:01.341Z,3.7
2018-06-24T06:50:01.051Z,3.5
2018-06-24T06:55:01.051Z,3.6
2018-06-24T07:00:01.176Z,3.8
2018-06-24T07:15:01.497Z,3.8
2018-06-24T07:20:06.107Z,3.7
2018-06-24T07:25:01.010Z,3.5
2018-06-24T07:30:01.046Z,3.4
2018-06-24T07:35:00.981Z,3.3
2018-06-24T07:40:01.542Z,3.5
2018-06-24T07:45:01.053Z,3.7
2018-06-24T07:55:01.193Z,4.3
2018-06-24T08:00:01.191Z,4.7
2018-06-24T08:05:06.046Z,5.1
2018-06-24T08:10:01.191Z,5.2
2018-06-24T08:15:01.031Z,5.2
2018-06-24T08:20:01.092Z,5.1
2018-06-24T08:25:01.025Z,4.6
2018-06-24T08:30:01.106Z,4.0
2018-06-24T08:35:01.058Z,3.7
2018-06-24T08:40:01.078Z,3.6
2018-06-24T08:45:06.407Z,3.0
2018-06-24T08:50:01.150Z,2.8
2018-06-24T08:55:01.015Z,2.6
2018-06-24T09:00:01.149Z,2.5
2018-06-24T09:05:01.088Z,2.7
2018-06-24T09:10:01.151Z,2.9
2018-06-24T09:15:01.234Z,3.0
2018-06-24T09:20:01.122Z,3.2
2018-06-24T09:25:01.148Z,3.3
2018-06-24T09:30:01.228Z,2.9
2018-06-24T09:35:01.086Z,2.8
2018-06-24T09:40:01.159Z,3.2
2018-06-24T09:45:01.002Z,3.3
2018-06-24T09:55:01.167Z,3.5
2018-06-24T10:00:01.234Z,3.7
2018-06-24T10:05:01.067Z,3.2
2018-06-24T10:15:01.120Z,3.4
2018-06-24T10:30:01.116Z,3.8
2018-06-24T10:45:01.216Z,4.0
2018-06-24T10:50:01.579Z,3.8
2018-06-24T10:55:01.100Z,3.9
2018-06-24T11:00:01.132Z,4.2
2018-06-24T11:05:01.072Z,4.6
2018-06-24T11:10:01.228Z,5.1
2018-06-24T11:15:01.074Z,5.7
2018-06-24T11:20:01.142Z,5.6
2018-06-24T11:25:06.088Z,5.9
2018-06-24T11:30:01.265Z,6.0
2018-06-24T11:35:06.126Z,5.8
2018-06-24T11:40:01.220Z,6.0
2018-06-24T11:45:01.440Z,6.0
2018-06-24T11:55:01.218Z,5.7
2018-06-24T12:00:01.154Z,6.2
2018-06-24T12:05:01.067Z,5.9
2018-06-24T12:10:01.292Z,6.0
2018-06-24T12:15:01.162Z,6.0
2018-06-24T12:20:01.170Z,6.2
2018-06-24T12:25:01.152Z,6.4
2018-06-24T12:30:01.166Z,6.7
2018-06-24T12:35:01.130Z,6.6
2018-06-24T12:40:01.302Z,6.3
2018-06-24T12:45:01.142Z,6.6
2018-06-24T12:50:01.352Z,6.4
2018-06-24T13:00:01.831Z,6.5
2018-06-24T13:05:01.088Z,6.8
2018-06-24T13:10:01.321Z,6.6
2018-06-24T13:15:01.187Z,6.2
2018-06-24T13:20:01.252Z,5.9
2018-06-24T13:25:01.148Z,5.7
2018-06-24T13:30:01.188Z,6.0
2018-06-24T13:40:01.290Z,6.6
2018-06-24T13:45:04.286Z,6.5
2018-06-24T13:55:06.204Z,6.0
2018-06-24T14:00:01.211Z,5.9
2018-06-24T14:05:01.269Z,5.5
2018-06-24T14:10:01.273Z,5.4
2018-06-24T14:15:01.145Z,5.6
2018-06-24T14:20:01.276Z,6.0
2018-06-24T14:30:01.224Z,6.1
2018-06-24T14:35:01.181Z,6.2
2018-06-24T14:45:01.288Z,6.2
2018-06-24T14:50:01.364Z,6.4
2018-06-24T15:00:01.237Z,6.4
2018-06-24T15:05:01.335Z,7.0
2018-06-24T15:10:01.301Z,7.2
2018-06-24T15:15:01.250Z,6.7
2018-06-24T15:20:01.562Z,6.8
2018-06-24T15:25:01.209Z,7.1
2018-06-24T15:30:01.256Z,6.9
2018-06-24T15:35:01.275Z,7.1
2018-06-24T15:40:01.321Z,7.0
2018-06-24T15:45:01.262Z,7.2
2018-06-24T15:50:01.452Z,6.8
2018-06-24T15:55:01.259Z,7.0
2018-06-24T16:00:01.255Z,6.8
2018-06-24T16:05:01.203Z,7.0
2018-06-24T16:10:01.719Z,6.7
2018-06-24T16:15:01.548Z,7.3
2018-06-24T16:20:01.356Z,6.9
2018-06-24T16:30:01.370Z,6.6
2018-06-24T16:35:01.272Z,6.7
2018-06-24T16:40:01.603Z,6.2
2018-06-24T16:45:01.222Z,6.3
2018-06-24T16:50:01.697Z,6.7
2018-06-24T16:55:01.284Z,7.5
2018-06-24T17:00:02.330Z,7.5
2018-06-24T17:05:02.320Z,7.7
2018-06-24T17:10:01.358Z,7.5
2018-06-24T17:15:01.295Z,7.8
2018-06-24T17:20:01.426Z,7.6
2018-06-24T17:30:01.394Z,7.6
2018-06-24T17:35:01.259Z,7.7
2018-06-24T17:40:01.383Z,7.2
2018-06-24T17:45:01.309Z,7.4
2018-06-24T17:50:01.433Z,7.7
2018-06-24T17:55:01.236Z,7.9
2018-06-24T18:00:01.492Z,8.4
2018-06-24T18:05:01.237Z,8.3
2018-06-24T18:10:01.367Z,7.8
2018-06-24T18:15:01.374Z,7.8
2018-06-24T18:20:01.439Z,7.4
2018-06-24T18:25:01.333Z,6.8
2018-06-24T18:30:01.438Z,6.7
2018-06-24T18:41:01.364Z,6.4
2018-06-24T18:46:01.232Z,6.3
2018-06-24T18:51:01.303Z,6.4
2018-06-24T19:01:01.368Z,6.1
2018-06-24T19:06:01.311Z,6.4
2018-06-24T19:11:01.373Z,6.5
2018-06-24T19:16:01.230Z,6.3
2018-06-24T19:21:01.293Z,6.2
2018-06-24T19:26:01.582Z,6.4
2018-06-24T19:41:01.789Z,6.0
2018-06-24T19:46:01.242Z,6.2
2018-06-24T19:51:01.307Z,6.1
2018-06-24T19:56:02.258Z,6.4
2018-06-24T20:11:01.306Z,6.2
2018-06-24T20:16:01.226Z,6.3
2018-06-24T20:21:01.367Z,5.6
2018-06-24T20:26:01.205Z,5.4
2018-06-24T20:31:01.301Z,5.8
2018-06-24T20:36:01.333Z,6.1
2018-06-24T20:41:01.353Z,6.0
2018-06-24T20:46:01.225Z,5.5
2018-06-24T20:51:01.228Z,6.0
2018-06-24T20:56:01.238Z,5.6
2018-06-24T21:01:01.365Z,5.3
2018-06-24T21:11:01.364Z,6.3
2018-06-24T21:16:01.290Z,5.8
2018-06-24T21:21:01.382Z,6.3
2018-06-24T21:26:01.265Z,6.6
2018-06-24T21:31:01.362Z,7.2
2018-06-24T21:36:01.271Z,6.5
2018-06-24T21:46:01.240Z,6.2
2018-06-24T21:51:01.377Z,6.0
2018-06-24T21:56:01.550Z,5.6
2018-06-24T22:01:01.743Z,6.1
2018-06-24T22:06:01.239Z,6.9
2018-06-24T22:11:01.431Z,6.8
2018-06-24T22:16:01.203Z,6.6
2018-06-24T22:21:06.309Z,6.8
2018-06-24T22:31:01.385Z,6.6
2018-06-24T22:36:01.239Z,6.7
2018-06-24T22:41:01.937Z,7.5
2018-06-24T22:46:01.294Z,6.9
2018-06-24T22:51:01.299Z,6.8
2018-06-24T22:56:01.276Z,7.8
2018-06-24T23:06:01.307Z,7.4
2018-06-24T23:11:01.742Z,9.0
2018-06-24T23:16:01.560Z,8.8
2018-06-24T23:21:01.368Z,8.1
2018-06-24T23:26:01.278Z,8.6
2018-06-24T23:31:01.341Z,8.4
2018-06-24T23:36:01.260Z,7.2
2018-06-24T23:41:01.415Z,7.8
2018-06-24T23:46:01.346Z,7.2
2018-06-24T23:51:01.470Z,6.8
2018-06-24T23:56:01.269Z,6.5
